Impacts TAF Board
For situational awareness. Not to be used for flight planning purposes.
IDs:

KSAT - San Antonio Intl, TX, US

Issued at 1446 UTC 05 Aug 2020
Updated at 1614 UTC 05 Aug 2020
Potential Impact None Slight Moderate High
Time1551Z 05/17Z 05/18Z 05/19Z 05/20Z 05/21Z 05/22Z 05/23Z 06/00Z 06/01Z 06/02Z 06/03Z 06/04Z 06/05Z>>
Type OBS PRVL PRVL PRVL PRVL PRVL PRVL PRVL PRVL PRVL PRVL PRVL PRVL PRVL
VIS 10 >6 >6 >6 >6 >6 >6 >6 >6 >6 >6 >6 >6 >6
CIG -- -- -- -- -- -- -- -- -- -- -- -- -- --
Cover FEW FEW FEW FEW FEW FEW FEW FEW FEW FEW FEW FEW FEW FEW
FltCat VFR VFR VFR VFR VFR VFR VFR VFR VFR VFR VFR VFR VFR VFR
WX -- -- -- -- -- -- -- -- -- -- -- -- -- --
WDir VRB 160 160 160 160 160 160 160 160 160 160 160 160 160
WSpd 3 12 12 12 12 12 12 12 12 12 12 12 12 12
WGst -- -- -- -- -- -- -- -- -- -- -- -- -- --
R04/22
XWnd VRB -10 -10 -10 -10 -10 -10 -10 -10 -10 -10 -10 -10 -10
HWnd VRB -6 -6 -6 -6 -6 -6 -6 -6 -6 -6 -6 -6 -6
R12/30
XWnd VRB -6 -6 -6 -6 -6 -6 -6 -6 -6 -6 -6 -6 -6
HWnd VRB 11 11 11 11 11 11 11 11 11 11 11 11 11
Raw TAF
KSAT 051446Z 0515/0618 20006KT P6SM SCT019
  FM051700 16012KT P6SM FEW060
  FM060900 19007KT P6SM BKN011
  FM061600 17010KT P6SM FEW030


Raw METAR
KSAT 051551Z VRB03KT 10SM FEW025 30/22 A3003 RMK AO2 SLP151 T03000217
KSAT 051451Z VRB06KT 10SM SCT017 SCT250 28/22 A3004 RMK AO2 SLP153 T02830222 51010
KSAT 051440Z 20007KT 10SM SCT017 SCT250 28/23 A3004 RMK AO2 T02830228
KSAT 051351Z 22010KT 10SM BKN011 BKN250 26/23 A3004 RMK AO2 SLP152 BKN11 V SCT T02610228

METAR Board
Radar Display
Forecast Discussion
For situational awareness. Not to be used for flight planning purposes.